WZZ7524 EDDN-EDDH
Flight info
| Callsign | WZZ7524 |
|---|---|
| Flight time | 0h 49m |
| Altitude | 30000 |
| Route | ERETO1G ERETO DCT LONLI M726 LASTO M852 LARET/N0426F340 M852 HLZ Z990 DIRBO/N0361F230 T902 RARUP RARUP3S |
| Aircraft | A20N/M-SDE2E3FGHIRWXY/LB1 |
Departure
| Time | 2026-04-25 13:35 |
|---|---|
| Airport | Nuremberg Airport (EDDN) |
Arrival
| Time | 2026-04-25 14:24 |
|---|---|
| Airport | Hamburg Helmut Schmidt Airport (EDDH) |
| Time | Latitude | Longitude | Altitude | Speed | Heading |
|---|---|---|---|---|---|
| 2026-04-25 13:10 | 49.49466 | 11.08227 | 1034 ft | 0 kts | 188° |
| 2026-04-25 13:27 | 49.49472 | 11.08229 | 1034 ft | 1 kts | 188° |
| 2026-04-25 13:27 | 49.49480 | 11.08230 | 1035 ft | 1 kts | 188° |
| 2026-04-25 13:27 | 49.49491 | 11.08233 | 1035 ft | 2 kts | 188° |
| 2026-04-25 13:27 | 49.49502 | 11.08235 | 1036 ft | 2 kts | 188° |
| 2026-04-25 13:28 | 49.49512 | 11.08238 | 1037 ft | 1 kts | 184° |
| 2026-04-25 13:28 | 49.49515 | 11.08238 | 1037 ft | 1 kts | 181° |
| 2026-04-25 13:28 | 49.49531 | 11.08237 | 1038 ft | 1 kts | 164° |
| 2026-04-25 13:28 | 49.49539 | 11.08233 | 1038 ft | 1 kts | 131° |
| 2026-04-25 13:29 | 49.49543 | 11.08224 | 1038 ft | 0 kts | 100° |
| 2026-04-25 13:31 | 49.49540 | 11.08247 | 1039 ft | 4 kts | 99° |
| 2026-04-25 13:31 | 49.49535 | 11.08312 | 1040 ft | 8 kts | 88° |
| 2026-04-25 13:31 | 49.49580 | 11.08360 | 1042 ft | 9 kts | 8° |
| 2026-04-25 13:31 | 49.49614 | 11.08442 | 1043 ft | 12 kts | 90° |
| 2026-04-25 13:32 | 49.49601 | 11.08589 | 1045 ft | 16 kts | 97° |
| 2026-04-25 13:32 | 49.49583 | 11.08772 | 1047 ft | 16 kts | 97° |
| 2026-04-25 13:32 | 49.49566 | 11.08952 | 1049 ft | 18 kts | 97° |
| 2026-04-25 13:32 | 49.49546 | 11.09149 | 1049 ft | 20 kts | 98° |
| 2026-04-25 13:33 | 49.49530 | 11.09314 | 1052 ft | 13 kts | 92° |
| 2026-04-25 13:33 | 49.49568 | 11.09433 | 1055 ft | 13 kts | 49° |
| 2026-04-25 13:33 | 49.49624 | 11.09547 | 1057 ft | 14 kts | 50° |
| 2026-04-25 13:33 | 49.49676 | 11.09570 | 1061 ft | 10 kts | 337° |
| 2026-04-25 13:34 | 49.49709 | 11.09451 | 1057 ft | 11 kts | 278° |
| 2026-04-25 13:34 | 49.49729 | 11.09235 | 1056 ft | 47 kts | 279° |
| 2026-04-25 13:34 | 49.49813 | 11.08389 | 1044 ft | 110 kts | 278° |
| 2026-04-25 13:34 | 49.49955 | 11.06986 | 1076 ft | 151 kts | 279° |
| 2026-04-25 13:35 | 49.50102 | 11.05453 | 1759 ft | 141 kts | 279° |
| 2026-04-25 13:35 | 49.50245 | 11.03963 | 2336 ft | 145 kts | 281° |
| 2026-04-25 13:35 | 49.50393 | 11.02437 | 2948 ft | 145 kts | 281° |
| 2026-04-25 13:35 | 49.50553 | 11.00813 | 3275 ft | 163 kts | 280° |
| 2026-04-25 13:36 | 49.50737 | 10.98965 | 3608 ft | 184 kts | 280° |
| 2026-04-25 13:36 | 49.50941 | 10.96886 | 4060 ft | 207 kts | 280° |
| 2026-04-25 13:36 | 49.51466 | 10.94718 | 4602 ft | 228 kts | 305° |
| 2026-04-25 13:36 | 49.52693 | 10.93020 | 5199 ft | 251 kts | 333° |
| 2026-04-25 13:37 | 49.54436 | 10.92436 | 6055 ft | 264 kts | 358° |
| 2026-04-25 13:37 | 49.56276 | 10.92504 | 6845 ft | 272 kts | 359° |
| 2026-04-25 13:37 | 49.58176 | 10.92594 | 7845 ft | 274 kts | 359° |
| 2026-04-25 13:37 | 49.60092 | 10.92673 | 8842 ft | 278 kts | 359° |
| 2026-04-25 13:38 | 49.62049 | 10.92730 | 9811 ft | 283 kts | 358° |
| 2026-04-25 13:38 | 49.64040 | 10.92786 | 10596 ft | 293 kts | 358° |
| 2026-04-25 13:38 | 49.66167 | 10.92841 | 10958 ft | 316 kts | 358° |
| 2026-04-25 13:38 | 49.68431 | 10.93017 | 11391 ft | 337 kts | 7° |
| 2026-04-25 13:39 | 49.70696 | 10.94131 | 12241 ft | 347 kts | 24° |
| 2026-04-25 13:39 | 49.72714 | 10.96254 | 13075 ft | 356 kts | 37° |
| 2026-04-25 13:39 | 49.74576 | 10.98725 | 13884 ft | 360 kts | 38° |
| 2026-04-25 13:39 | 49.76481 | 11.01261 | 14629 ft | 364 kts | 38° |
| 2026-04-25 13:40 | 49.78420 | 11.03838 | 15386 ft | 368 kts | 38° |
| 2026-04-25 13:40 | 49.80364 | 11.06422 | 16131 ft | 371 kts | 37° |
| 2026-04-25 13:40 | 49.82310 | 11.09090 | 16841 ft | 377 kts | 42° |
| 2026-04-25 13:40 | 49.84020 | 11.12221 | 17570 ft | 384 kts | 52° |
| 2026-04-25 13:41 | 49.85389 | 11.15818 | 18269 ft | 391 kts | 62° |
| 2026-04-25 13:41 | 49.86560 | 11.19658 | 18874 ft | 396 kts | 62° |
| 2026-04-25 13:41 | 49.87739 | 11.23484 | 19455 ft | 401 kts | 62° |
| 2026-04-25 13:41 | 49.89156 | 11.27195 | 20038 ft | 400 kts | 48° |
| 2026-04-25 13:42 | 49.91165 | 11.30144 | 20600 ft | 398 kts | 31° |
| 2026-04-25 13:42 | 49.93616 | 11.32063 | 21206 ft | 393 kts | 14° |
| 2026-04-25 13:42 | 49.96282 | 11.32806 | 21785 ft | 389 kts | 357° |
| 2026-04-25 13:42 | 49.98941 | 11.32337 | 22384 ft | 385 kts | 341° |
| 2026-04-25 13:43 | 50.00598 | 11.31383 | 22780 ft | 383 kts | 330° |
| 2026-04-25 13:43 | 50.02795 | 11.29086 | 23371 ft | 382 kts | 318° |
| 2026-04-25 13:43 | 50.05527 | 11.25570 | 24042 ft | 388 kts | 324° |
| 2026-04-25 13:43 | 50.07115 | 11.24176 | 24342 ft | 392 kts | 334° |
| 2026-04-25 13:44 | 50.10630 | 11.22728 | 25001 ft | 401 kts | 352° |
| 2026-04-25 13:44 | 50.13431 | 11.22658 | 25511 ft | 404 kts | 357° |
| 2026-04-25 13:44 | 50.16250 | 11.22679 | 26003 ft | 406 kts | 358° |
| 2026-04-25 13:44 | 50.18127 | 11.22692 | 26331 ft | 408 kts | 358° |
| 2026-04-25 13:45 | 50.20967 | 11.22712 | 26801 ft | 409 kts | 358° |
| 2026-04-25 13:45 | 50.23822 | 11.22730 | 27258 ft | 411 kts | 358° |
| 2026-04-25 13:45 | 50.26691 | 11.22747 | 27722 ft | 413 kts | 358° |
| 2026-04-25 13:45 | 50.30512 | 11.22770 | 28300 ft | 416 kts | 358° |
| 2026-04-25 13:46 | 50.33413 | 11.22788 | 28705 ft | 418 kts | 358° |
| 2026-04-25 13:46 | 50.36317 | 11.22742 | 29102 ft | 419 kts | 354° |
| 2026-04-25 13:46 | 50.38281 | 11.22473 | 29360 ft | 420 kts | 352° |
| 2026-04-25 13:46 | 50.41159 | 11.22021 | 29742 ft | 422 kts | 352° |
| 2026-04-25 13:47 | 50.44095 | 11.21580 | 30020 ft | 426 kts | 352° |
| 2026-04-25 13:47 | 50.50110 | 11.20681 | 30071 ft | 443 kts | 352° |
| 2026-04-25 13:48 | 50.57266 | 11.19606 | 30060 ft | 443 kts | 352° |
| 2026-04-25 13:48 | 50.62400 | 11.18828 | 30070 ft | 443 kts | 352° |
| 2026-04-25 13:49 | 50.68531 | 11.17895 | 30066 ft | 442 kts | 352° |
| 2026-04-25 13:49 | 50.74606 | 11.16967 | 30071 ft | 441 kts | 352° |
| 2026-04-25 13:50 | 50.80710 | 11.16034 | 30072 ft | 440 kts | 352° |
| 2026-04-25 13:50 | 50.86816 | 11.15097 | 30073 ft | 440 kts | 352° |
| 2026-04-25 13:51 | 50.92905 | 11.14162 | 30074 ft | 440 kts | 352° |
| 2026-04-25 13:51 | 50.98986 | 11.13224 | 30077 ft | 439 kts | 351° |
| 2026-04-25 13:52 | 51.05023 | 11.12292 | 30076 ft | 438 kts | 351° |
| 2026-04-25 13:52 | 51.11046 | 11.11096 | 30075 ft | 435 kts | 345° |
| 2026-04-25 13:53 | 51.16789 | 11.08252 | 30077 ft | 431 kts | 335° |
| 2026-04-25 13:53 | 51.22262 | 11.04362 | 30066 ft | 430 kts | 334° |
| 2026-04-25 13:54 | 51.27687 | 11.00526 | 30063 ft | 429 kts | 334° |
| 2026-04-25 13:54 | 51.33138 | 10.96631 | 30062 ft | 429 kts | 334° |
| 2026-04-25 13:55 | 51.38808 | 10.93644 | 30059 ft | 431 kts | 345° |
| 2026-04-25 13:55 | 51.44784 | 10.92411 | 30058 ft | 435 kts | 352° |
| 2026-04-25 13:56 | 51.50808 | 10.91677 | 30058 ft | 434 kts | 352° |
| 2026-04-25 13:56 | 51.56776 | 10.90944 | 30053 ft | 433 kts | 352° |
| 2026-04-25 13:57 | 51.62781 | 10.90222 | 30062 ft | 432 kts | 352° |
| 2026-04-25 13:57 | 51.68775 | 10.89496 | 30059 ft | 432 kts | 351° |
| 2026-04-25 13:58 | 51.74749 | 10.88486 | 30059 ft | 430 kts | 349° |
| 2026-04-25 13:58 | 51.80649 | 10.87432 | 30063 ft | 430 kts | 349° |
| 2026-04-25 13:59 | 51.86612 | 10.86445 | 30062 ft | 430 kts | 351° |
| 2026-04-25 13:59 | 51.92586 | 10.85630 | 30044 ft | 431 kts | 351° |
| 2026-04-25 14:00 | 51.97550 | 10.84950 | 30066 ft | 430 kts | 351° |
| 2026-04-25 14:00 | 52.04481 | 10.84005 | 30057 ft | 431 kts | 352° |
| 2026-04-25 14:01 | 52.10459 | 10.83304 | 30072 ft | 430 kts | 350° |
| 2026-04-25 14:01 | 52.13434 | 10.82845 | 29944 ft | 429 kts | 349° |
| 2026-04-25 14:01 | 52.16423 | 10.82364 | 30042 ft | 432 kts | 349° |
| 2026-04-25 14:02 | 52.22355 | 10.81480 | 30003 ft | 424 kts | 350° |
| 2026-04-25 14:02 | 52.25268 | 10.81075 | 29830 ft | 410 kts | 350° |
| 2026-04-25 14:02 | 52.28079 | 10.80691 | 29101 ft | 401 kts | 350° |
| 2026-04-25 14:02 | 52.29908 | 10.80437 | 28446 ft | 398 kts | 350° |
| 2026-04-25 14:03 | 52.33552 | 10.79923 | 27331 ft | 396 kts | 349° |
| 2026-04-25 14:03 | 52.36246 | 10.79235 | 26841 ft | 386 kts | 343° |
| 2026-04-25 14:03 | 52.38816 | 10.78090 | 26412 ft | 382 kts | 337° |
| 2026-04-25 14:03 | 52.41318 | 10.76634 | 25994 ft | 382 kts | 336° |
| 2026-04-25 14:04 | 52.43827 | 10.75193 | 25572 ft | 380 kts | 336° |
| 2026-04-25 14:04 | 52.46314 | 10.73778 | 25149 ft | 378 kts | 336° |
| 2026-04-25 14:04 | 52.48764 | 10.72377 | 24632 ft | 377 kts | 336° |
| 2026-04-25 14:04 | 52.51216 | 10.70970 | 24116 ft | 373 kts | 336° |
| 2026-04-25 14:05 | 52.53650 | 10.69568 | 23604 ft | 369 kts | 336° |
| 2026-04-25 14:05 | 52.56071 | 10.68166 | 23026 ft | 368 kts | 336° |
| 2026-04-25 14:05 | 52.58484 | 10.66768 | 22446 ft | 365 kts | 336° |
| 2026-04-25 14:05 | 52.60865 | 10.65387 | 21889 ft | 362 kts | 336° |
| 2026-04-25 14:06 | 52.63228 | 10.64015 | 21287 ft | 359 kts | 336° |
| 2026-04-25 14:06 | 52.65573 | 10.62651 | 20708 ft | 356 kts | 336° |
| 2026-04-25 14:06 | 52.67895 | 10.61299 | 20147 ft | 352 kts | 335° |
| 2026-04-25 14:06 | 52.70166 | 10.59976 | 19605 ft | 349 kts | 335° |
| 2026-04-25 14:07 | 52.72470 | 10.58632 | 19067 ft | 346 kts | 335° |
| 2026-04-25 14:07 | 52.74701 | 10.57329 | 18553 ft | 343 kts | 335° |
| 2026-04-25 14:07 | 52.76943 | 10.56018 | 18009 ft | 340 kts | 335° |
| 2026-04-25 14:07 | 52.79159 | 10.54720 | 17426 ft | 337 kts | 335° |
| 2026-04-25 14:08 | 52.81366 | 10.53425 | 16869 ft | 335 kts | 335° |
| 2026-04-25 14:08 | 52.83550 | 10.52144 | 16339 ft | 331 kts | 335° |
| 2026-04-25 14:08 | 52.85711 | 10.50875 | 15889 ft | 329 kts | 335° |
| 2026-04-25 14:08 | 52.87869 | 10.49604 | 15417 ft | 328 kts | 335° |
| 2026-04-25 14:09 | 52.90009 | 10.48345 | 14963 ft | 324 kts | 335° |
| 2026-04-25 14:09 | 52.92098 | 10.47114 | 14532 ft | 323 kts | 335° |
| 2026-04-25 14:09 | 52.94210 | 10.45867 | 14057 ft | 321 kts | 335° |
| 2026-04-25 14:09 | 52.95633 | 10.45027 | 13753 ft | 319 kts | 335° |
| 2026-04-25 14:10 | 52.98382 | 10.43404 | 13081 ft | 315 kts | 335° |
| 2026-04-25 14:10 | 53.00431 | 10.42189 | 12565 ft | 313 kts | 335° |
| 2026-04-25 14:10 | 53.02464 | 10.40986 | 11994 ft | 305 kts | 335° |
| 2026-04-25 14:10 | 53.04469 | 10.39798 | 11449 ft | 306 kts | 335° |
| 2026-04-25 14:11 | 53.06472 | 10.38609 | 10915 ft | 305 kts | 335° |
| 2026-04-25 14:11 | 53.08454 | 10.37432 | 10394 ft | 300 kts | 335° |
| 2026-04-25 14:11 | 53.10409 | 10.36269 | 9883 ft | 297 kts | 335° |
| 2026-04-25 14:11 | 53.12326 | 10.35131 | 9431 ft | 285 kts | 335° |
| 2026-04-25 14:12 | 53.14108 | 10.34078 | 9290 ft | 264 kts | 334° |
| 2026-04-25 14:12 | 53.15777 | 10.33093 | 9270 ft | 249 kts | 334° |
| 2026-04-25 14:12 | 53.17419 | 10.32106 | 9109 ft | 252 kts | 334° |
| 2026-04-25 14:12 | 53.19067 | 10.31112 | 8758 ft | 251 kts | 334° |
| 2026-04-25 14:13 | 53.20697 | 10.30132 | 8419 ft | 247 kts | 334° |
| 2026-04-25 14:13 | 53.22277 | 10.29189 | 8096 ft | 236 kts | 334° |
| 2026-04-25 14:13 | 53.23795 | 10.28287 | 7775 ft | 226 kts | 334° |
| 2026-04-25 14:13 | 53.25243 | 10.27424 | 7481 ft | 216 kts | 333° |
| 2026-04-25 14:14 | 53.26632 | 10.26595 | 7201 ft | 207 kts | 333° |
| 2026-04-25 14:14 | 53.27983 | 10.25778 | 6923 ft | 211 kts | 333° |
| 2026-04-25 14:14 | 53.29359 | 10.24945 | 6648 ft | 209 kts | 333° |
| 2026-04-25 14:14 | 53.30707 | 10.24135 | 6392 ft | 202 kts | 333° |
| 2026-04-25 14:15 | 53.31999 | 10.23363 | 6123 ft | 194 kts | 333° |
| 2026-04-25 14:15 | 53.32835 | 10.22860 | 5936 ft | 192 kts | 333° |
| 2026-04-25 14:15 | 53.34477 | 10.21873 | 5586 ft | 180 kts | 333° |
| 2026-04-25 14:15 | 53.35606 | 10.21203 | 5353 ft | 164 kts | 332° |
| 2026-04-25 14:16 | 53.36655 | 10.20575 | 5207 ft | 163 kts | 332° |
| 2026-04-25 14:16 | 53.37712 | 10.19926 | 4980 ft | 160 kts | 332° |
| 2026-04-25 14:16 | 53.38759 | 10.19286 | 4692 ft | 160 kts | 332° |
| 2026-04-25 14:16 | 53.39795 | 10.18654 | 4402 ft | 161 kts | 332° |
| 2026-04-25 14:17 | 53.40849 | 10.18013 | 4103 ft | 163 kts | 332° |
| 2026-04-25 14:17 | 53.41924 | 10.17364 | 3810 ft | 164 kts | 332° |
| 2026-04-25 14:17 | 53.42994 | 10.16716 | 3521 ft | 164 kts | 333° |
| 2026-04-25 14:17 | 53.44025 | 10.15943 | 3234 ft | 161 kts | 326° |
| 2026-04-25 14:18 | 53.45022 | 10.15068 | 3017 ft | 163 kts | 327° |
| 2026-04-25 14:18 | 53.46033 | 10.14201 | 2992 ft | 164 kts | 327° |
| 2026-04-25 14:18 | 53.47040 | 10.13347 | 2990 ft | 156 kts | 326° |
| 2026-04-25 14:18 | 53.47988 | 10.12549 | 3008 ft | 152 kts | 326° |
| 2026-04-25 14:19 | 53.48857 | 10.11820 | 2989 ft | 130 kts | 325° |
| 2026-04-25 14:19 | 53.49618 | 10.11178 | 2997 ft | 119 kts | 324° |
| 2026-04-25 14:19 | 53.50346 | 10.10552 | 2999 ft | 118 kts | 324° |
| 2026-04-25 14:19 | 53.51065 | 10.09926 | 2985 ft | 115 kts | 324° |
| 2026-04-25 14:20 | 53.51780 | 10.09302 | 2891 ft | 118 kts | 324° |
| 2026-04-25 14:20 | 53.52265 | 10.08879 | 2750 ft | 118 kts | 324° |
| 2026-04-25 14:20 | 53.53236 | 10.08038 | 2448 ft | 118 kts | 324° |
| 2026-04-25 14:20 | 53.53964 | 10.07409 | 2176 ft | 117 kts | 324° |
| 2026-04-25 14:21 | 53.54684 | 10.06792 | 1903 ft | 115 kts | 325° |
| 2026-04-25 14:21 | 53.55386 | 10.06192 | 1735 ft | 116 kts | 325° |
| 2026-04-25 14:21 | 53.56107 | 10.05571 | 1558 ft | 116 kts | 325° |
| 2026-04-25 14:21 | 53.56825 | 10.04952 | 1381 ft | 116 kts | 325° |
| 2026-04-25 14:22 | 53.57543 | 10.04334 | 1207 ft | 117 kts | 326° |
| 2026-04-25 14:22 | 53.58265 | 10.03707 | 1029 ft | 117 kts | 326° |
| 2026-04-25 14:22 | 53.58984 | 10.03091 | 850 ft | 115 kts | 325° |
| 2026-04-25 14:22 | 53.59694 | 10.02477 | 630 ft | 116 kts | 327° |
| 2026-04-25 14:23 | 53.60396 | 10.01863 | 496 ft | 114 kts | 327° |
| 2026-04-25 14:23 | 53.61096 | 10.01252 | 430 ft | 113 kts | 327° |
| 2026-04-25 14:23 | 53.61827 | 10.00641 | 310 ft | 117 kts | 327° |
| 2026-04-25 14:23 | 53.62532 | 10.00038 | 152 ft | 114 kts | 327° |
| 2026-04-25 14:24 | 53.63229 | 9.99431 | 48 ft | 108 kts | 329° |
| 2026-04-25 14:24 | 53.63736 | 9.98992 | 47 ft | 53 kts | 334° |
| 2026-04-25 14:24 | 53.63911 | 9.98842 | 49 ft | 17 kts | 333° |
| 2026-04-25 14:24 | 53.63982 | 9.98856 | 48 ft | 0 kts | 63° |
| 2026-04-25 14:25 | 53.63981 | 9.98859 | 48 ft | 1 kts | 84° |
| 2026-04-25 14:25 | 53.63914 | 9.98995 | 50 ft | 12 kts | 125° |
| 2026-04-25 14:25 | 53.63902 | 9.99024 | 51 ft | 6 kts | 123° |
| 2026-04-25 14:25 | 53.63883 | 9.99076 | 48 ft | 10 kts | 123° |
| 2026-04-25 14:26 | 53.63814 | 9.99234 | 51 ft | 15 kts | 122° |
| 2026-04-25 14:26 | 53.63744 | 9.99394 | 50 ft | 19 kts | 127° |
| 2026-04-25 14:26 | 53.63695 | 9.99509 | 48 ft | 0 kts | 126° |
| 2026-04-25 14:26 | 53.63692 | 9.99516 | 49 ft | 2 kts | 126° |
| 2026-04-25 14:27 | 53.63673 | 9.99559 | 50 ft | 7 kts | 126° |
| 2026-04-25 14:27 | 53.63637 | 9.99641 | 50 ft | 11 kts | 127° |
| 2026-04-25 14:27 | 53.63588 | 9.99759 | 51 ft | 13 kts | 122° |
| 2026-04-25 14:27 | 53.63525 | 9.99907 | 50 ft | 18 kts | 128° |
| 2026-04-25 14:28 | 53.63468 | 10.00037 | 51 ft | 10 kts | 125° |
| 2026-04-25 14:28 | 53.63459 | 10.00057 | 51 ft | 1 kts | 125° |
| 2026-04-25 14:28 | 53.63454 | 10.00070 | 51 ft | 1 kts | 125° |
| 2026-04-25 14:28 | 53.63442 | 10.00096 | 51 ft | 4 kts | 126° |
| 2026-04-25 14:29 | 53.63417 | 10.00154 | 49 ft | 8 kts | 126° |
| 2026-04-25 14:29 | 53.63372 | 10.00227 | 50 ft | 8 kts | 168° |
| 2026-04-25 14:29 | 53.63349 | 10.00230 | 48 ft | 0 kts | 175° |
| 2026-04-25 14:30 | 53.63326 | 10.00233 | 50 ft | 7 kts | 175° |
| 2026-04-25 14:30 | 53.63204 | 10.00263 | 49 ft | 2 kts | 116° |
| 2026-04-25 14:30 | 53.63207 | 10.00308 | 49 ft | 8 kts | 87° |
| 2026-04-25 14:31 | 53.63209 | 10.00369 | 49 ft | 0 kts | 88° |